• Join FlightAware (Why Join?)
  • Login
  • US Flag 
05:37AM EDT


 

Airport Tracker/Info


-or-


 

Live Flight TrackerFlight Track Log ✈ CTA307 ✈ 02-May-2013 ✈ KVGT - KPHX

Flight Track Log - Related Links

Times and Time Zones

All times are in EDT time to prevent confusion due to time zone crossing. See the CTA307 flight status page for this flight to view local times or setup timezone preferences in your user account.

Time Position Orientation Groundspeed Altitude Reporting Facility
EDT Latitude Longitude Course Direction KTS MPH feet Rate Location/Type
10:56PM 36.2331 -115.1750 100° East 119 137 3,700  Level Los Angeles Center
10:56PM 36.2286 -115.1444 100° East 125 144 4,100 540 Climbing Los Angeles Center
10:57PM 36.2278 -115.1253 93° East 123 142 4,400 660 Climbing Los Angeles Center
10:57PM 36.2233 -115.1008 103° East 128 147 4,800 660 Climbing Los Angeles Center
10:58PM 36.2211 -115.0822 98° East 127 146 5,100 660 Climbing Los Angeles Center
10:58PM 36.2164 -115.0581 104° East 130 150 5,500 540 Climbing Los Angeles Center
10:59PM 36.2136 -115.0400 101° East 126 145 5,700 600 Climbing Los Angeles Center
10:59PM 36.2086 -115.0125 103° East 129 148 6,200 840 Climbing Los Angeles Center
11:00PM 36.2044 -114.9878 102° East 129 148 6,600 660 Climbing Los Angeles Center
11:00PM 36.1989 -114.9678 109° East 130 150 6,900 540 Climbing Los Angeles Center
11:01PM 36.1931 -114.9450 108° East 131 151 7,200 780 Climbing Los Angeles Center
11:01PM 36.1808 -114.9258 128° Southeast 126 145 7,700 720 Climbing Los Angeles Center
11:02PM 36.1742 -114.9081 115° Southeast 128 147 8,000 780 Climbing Los Angeles Center
11:02PM 36.1642 -114.8886 122° Southeast 127 146 8,500 720 Climbing Los Angeles Center
11:03PM 36.1558 -114.8708 120° Southeast 127 146 8,800 540 Climbing Los Angeles Center
11:03PM 36.1378 -114.8575 149° Southeast 134 154 9,100 540 Climbing Los Angeles Center
11:04PM 36.1267 -114.8436 135° Southeast 128 147 9,400 540 Climbing Los Angeles Center
11:04PM 36.1119 -114.8289 141° Southeast 137 158 9,600 180 Climbing Los Angeles Center
11:05PM 36.0961 -114.8108 137° Southeast 138 159 9,600  Level Los Angeles Center
11:06PM 36.0608 -114.7703 137° Southeast 161 185 9,600  Level Los Angeles Center
11:07PM 36.0242 -114.7306 139° Southeast 172 198 9,600  Level Los Angeles Center
11:08PM 35.9800 -114.6833 139° Southeast 173 199 9,600  Level Los Angeles Center
11:09PM 35.9475 -114.6414 134° Southeast 171 197 9,600  Level Los Angeles Center
11:10PM 35.9114 -114.6028 139° Southeast 170 196 9,600  Level Los Angeles Center
11:11PM 35.8756 -114.5642 139° Southeast 170 196 9,600  Level Los Angeles Center
11:12PM 35.8397 -114.5244 138° Southeast 172 198 9,600  Level Los Angeles Center
11:13PM 35.8056 -114.4844 136° Southeast 170 196 9,600  Level Los Angeles Center
11:14PM 35.7719 -114.4447 136° Southeast 168 193 9,600  Level Los Angeles Center
11:15PM 35.7361 -114.4058 139° Southeast 170 196 9,600  Level Los Angeles Center
11:16PM 35.6950 -114.3578 136° Southeast 169 194 9,600  Level Los Angeles Center
11:17PM 35.6597 -114.3172 137° Southeast 172 198 9,600  Level Los Angeles Center
11:18PM 35.6228 -114.2797 140° Southeast 172 198 9,600  Level Los Angeles Center
11:20PM 35.5789 -114.2328 139° Southeast 176 203 9,600  Level Los Angeles Center
11:21PM 35.5414 -114.1922 139° Southeast 179 206 9,600 -60 Level Los Angeles Center
11:22PM 35.5064 -114.1556 140° Southeast 169 194 9,500  Descending Los Angeles Center
11:23PM 35.4722 -114.1186 139° Southeast 166 191 9,600  Climbing Los Angeles Center
11:24PM 35.4281 -114.0717 139° Southeast 168 193 9,600  Level Los Angeles Center
11:25PM 35.3917 -114.0336 140° Southeast 171 197 9,600  Level Los Angeles Center
11:26PM 35.3556 -113.9939 138° Southeast 173 199 9,700  Climbing Los Angeles Center
11:27PM 35.3178 -113.9575 142° Southeast 173 199 9,700  Level Los Angeles Center
11:28PM 35.2817 -113.9253 144° Southeast 173 199 9,700  Level Los Angeles Center
11:29PM 35.2456 -113.8856 138° Southeast 174 200 9,700  Level Los Angeles Center
11:30PM 35.1967 -113.8292 137° Southeast 174 200 9,700 -60 Level Los Angeles Center
11:31PM 35.1600 -113.7894 138° Southeast 176 203 9,600 -60 Descending Los Angeles Center
11:32PM 35.1256 -113.7472 135° Southeast 176 203 9,600 -60 Level Los Angeles Center
11:33PM 35.0903 -113.7064 137° Southeast 176 203 9,500 -60 Descending Los Angeles Center
11:34PM 35.0517 -113.6664 140° Southeast 180 207 9,500  Level Los Angeles Center
11:35PM 35.0089 -113.6169 137° Southeast 179 206 9,500  Level Los Angeles Center
11:36PM 34.9719 -113.5769 138° Southeast 179 206 9,600  Climbing Los Angeles Center
11:37PM 34.9356 -113.5353 137° Southeast 181 208 9,600  Level Los Angeles Center
11:38PM 34.8994 -113.4933 136° Southeast 181 208 9,600 -120 Level Los Angeles Center
11:39PM 34.8628 -113.4506 136° Southeast 182 209 9,400  Descending Los Angeles Center
11:40PM 34.8386 -113.4269 141° Southeast 184 212 9,600 120 Climbing Albuquerque Center
11:41PM 34.8006 -113.3864 139° Southeast 184 212 9,600  Level Albuquerque Center
11:42PM 34.7644 -113.3461 137° Southeast 181 208 9,600  Level Albuquerque Center
11:43PM 34.7269 -113.3039 137° Southeast 181 208 9,600  Level Albuquerque Center
11:44PM 34.6875 -113.2644 141° Southeast 183 211 9,600  Level Albuquerque Center
11:45PM 34.6406 -113.2164 140° Southeast 184 212 9,600  Level Albuquerque Center
11:46PM 34.6025 -113.1758 139° Southeast 184 212 9,600  Level Albuquerque Center
11:47PM 34.5653 -113.1339 137° Southeast 184 212 9,600  Level Albuquerque Center
11:48PM 34.5267 -113.0928 139° Southeast 184 212 9,600  Level Albuquerque Center
11:49PM 34.4908 -113.0531 138° Southeast 182 209 9,600 -60 Level Albuquerque Center
11:50PM 34.4547 -113.0139 138° Southeast 178 205 9,500  Descending Albuquerque Center
11:51PM 34.4156 -112.9733 139° Southeast 175 201 9,600 180 Climbing Albuquerque Center
11:52PM 34.3806 -112.9308 135° Southeast 173 199 9,900 120 Climbing Albuquerque Center
11:53PM 34.3458 -112.8925 138° Southeast 172 198 9,900 -60 Level Albuquerque Center
11:54PM 34.3114 -112.8511 135° Southeast 173 199 9,800 -60 Descending Albuquerque Center
11:55PM 34.2719 -112.8117 140° Southeast 178 205 9,800  Level Albuquerque Center
11:56PM 34.2344 -112.7700 137° Southeast 181 208 9,900  Climbing Albuquerque Center
11:57PM 34.1964 -112.7303 139° Southeast 182 209 9,800 -180 Descending Albuquerque Center
11:58PM 34.1503 -112.6808 138° Southeast 184 212 9,600 -120 Descending Albuquerque Center
11:59PM 34.1139 -112.6406 137° Southeast 181 208 9,600  Level Albuquerque Center
12:00AM 34.0786 -112.5983 135° Southeast 180 207 9,700  Climbing Albuquerque Center
12:01AM 34.0419 -112.5567 137° Southeast 182 209 9,700  Level Albuquerque Center
12:02AM 34.0047 -112.5150 137° Southeast 182 209 9,700 -60 Level Albuquerque Center
12:03AM 33.9672 -112.4742 138° Southeast 182 209 9,600 -60 Descending Albuquerque Center
12:04AM 33.9294 -112.4339 138° Southeast 182 209 9,600  Level Albuquerque Center
12:05AM 33.8936 -112.3931 137° Southeast 178 205 9,600 -120 Level Albuquerque Center
12:06AM 33.8547 -112.3561 142° Southeast 178 205 9,400 -420 Descending Albuquerque Center
12:07AM 33.8100 -112.3225 148° Southeast 186 214 8,800 -660 Descending Albuquerque Center
12:08AM 33.7558 -112.2800 147° Southeast 194 223 8,100 -660 Descending Albuquerque Center
12:09AM 33.7097 -112.2461 149° Southeast 195 224 7,500 -600 Descending Albuquerque Center
12:10AM 33.6636 -112.2122 149° Southeast 196 226 6,900 -720 Descending Albuquerque Center
12:11AM 33.6067 -112.2156 183° South 202 232 6,100 -1,020 Descending Albuquerque Center
12:12AM 33.5494 -112.2183 182° South 206 237 4,900 -720 Descending Albuquerque Center
12:14AM 33.4944 -112.2228 184° South 200 230 4,700 -300 Descending Albuquerque Center
12:15AM 33.4478 -112.2192 176° South 174 200 4,400 -540 Descending Albuquerque Center
12:16AM 33.4283 -112.1728 117° Southeast 167 192 3,700 -840 Descending Albuquerque Center
12:17AM 33.4281 -112.1192 90° East 163 188 2,700 -840 Descending Albuquerque Center
12:18AM 33.4286 -112.0708 89° East 149 171 2,000 -720 Descending Albuquerque Center
12:19AM 33.4292 -112.0283 89° East 106 122 1,300 -720 Descending Albuquerque Center